createdAt,value
2022-09-27T00:00:30.021Z,11.07
2022-09-27T00:02:56.590Z,11.06
2022-09-27T00:05:23.475Z,11.07
2022-09-27T00:07:49.894Z,11.07
2022-09-27T00:10:16.544Z,11.08
2022-09-27T00:12:42.975Z,11.08
2022-09-27T00:15:10.067Z,11.09
2022-09-27T00:17:37.463Z,11.08
2022-09-27T00:20:05.166Z,11.06
2022-09-27T00:22:32.167Z,11.06
2022-09-27T00:24:59.002Z,11.06
2022-09-27T00:27:26.082Z,11.03
2022-09-27T00:29:52.994Z,11.02
2022-09-27T00:32:19.534Z,11.00
2022-09-27T00:34:46.016Z,11.00
2022-09-27T00:37:12.512Z,10.97
2022-09-27T00:39:42.326Z,10.98
2022-09-27T00:42:13.115Z,10.98
2022-09-27T00:44:39.670Z,10.98
2022-09-27T00:47:06.044Z,10.99
2022-09-27T00:49:36.333Z,10.99
2022-09-27T00:52:05.626Z,10.97
2022-09-27T00:54:34.664Z,10.94
2022-09-27T00:57:03.009Z,10.95
2022-09-27T00:59:29.452Z,10.94
2022-09-27T01:01:57.011Z,10.95
2022-09-27T01:04:26.735Z,10.95
2022-09-27T01:06:53.503Z,10.94
2022-09-27T01:09:20.933Z,10.95
2022-09-27T01:11:56.659Z,10.96
2022-09-27T01:14:29.283Z,10.95
2022-09-27T01:16:58.752Z,10.91
2022-09-27T01:19:44.040Z,10.91
2022-09-27T01:22:13.348Z,10.90
2022-09-27T01:24:39.908Z,10.87
2022-09-27T01:27:15.781Z,10.86
2022-09-27T01:30:11.457Z,10.87
2022-09-27T01:32:52.254Z,10.89
2022-09-27T01:35:32.363Z,10.88
2022-09-27T01:38:17.557Z,10.88
2022-09-27T01:40:54.451Z,10.86
2022-09-27T01:43:38.910Z,10.84
2022-09-27T01:46:08.801Z,10.84
2022-09-27T01:49:08.243Z,10.84
2022-09-27T01:51:41.935Z,10.81
2022-09-27T01:54:11.959Z,10.81
2022-09-27T01:56:58.035Z,10.81
2022-09-27T01:59:29.791Z,10.81
2022-09-27T02:02:14.808Z,10.84
2022-09-27T02:05:09.744Z,10.82
2022-09-27T02:07:50.752Z,10.80
2022-09-27T02:10:22.938Z,10.79
2022-09-27T02:12:59.902Z,10.81
2022-09-27T02:15:27.285Z,10.82
2022-09-27T02:18:16.726Z,10.81
2022-09-27T02:20:49.861Z,10.80
2022-09-27T02:23:22.565Z,10.80
2022-09-27T02:25:58.665Z,10.77
2022-09-27T02:28:40.056Z,10.77
2022-09-27T02:31:09.045Z,10.74
2022-09-27T02:33:49.301Z,10.71
2022-09-27T02:36:15.814Z,10.70
2022-09-27T02:38:43.208Z,10.69
2022-09-27T02:41:17.764Z,10.70
2022-09-27T02:43:45.522Z,10.68
2022-09-27T02:46:31.695Z,10.64
2022-09-27T02:49:25.336Z,10.61
2022-09-27T02:52:10.908Z,10.56
2022-09-27T02:54:46.552Z,10.56
2022-09-27T02:57:34.403Z,10.57
2022-09-27T03:00:20.660Z,10.57
2022-09-27T03:02:58.029Z,10.58
2022-09-27T03:06:03.915Z,10.57
2022-09-27T03:08:30.353Z,10.55
2022-09-27T03:10:56.820Z,10.53
2022-09-27T03:13:23.530Z,10.54
2022-09-27T03:15:50.327Z,10.53
2022-09-27T03:18:35.168Z,10.56
2022-09-27T03:21:20.087Z,10.54
2022-09-27T03:23:46.493Z,10.52
2022-09-27T03:26:13.419Z,10.53
2022-09-27T03:28:40.069Z,10.52
2022-09-27T03:31:06.612Z,10.52
2022-09-27T03:34:02.062Z,10.50
2022-09-27T03:36:28.799Z,10.50
2022-09-27T03:38:55.168Z,10.52
2022-09-27T03:41:21.589Z,10.52
2022-09-27T03:43:48.179Z,10.51
2022-09-27T03:46:14.710Z,10.53
2022-09-27T03:48:42.539Z,10.53
2022-09-27T03:51:09.634Z,10.52
2022-09-27T03:53:36.009Z,10.52
2022-09-27T03:56:02.679Z,10.51
2022-09-27T03:58:29.705Z,10.48
2022-09-27T04:03:38.197Z,10.41
2022-09-27T04:06:14.011Z,10.38
2022-09-27T04:08:43.741Z,10.34
2022-09-27T04:11:10.817Z,10.32
2022-09-27T04:13:39.545Z,10.32
2022-09-27T04:16:07.799Z,10.30
2022-09-27T04:19:10.657Z,10.29
2022-09-27T04:21:50.788Z,10.30
2022-09-27T04:24:17.635Z,10.32
2022-09-27T04:26:56.812Z,10.32
2022-09-27T04:29:26.060Z,10.29
2022-09-27T04:31:54.264Z,10.26
2022-09-27T04:35:17.302Z,10.24
2022-09-27T04:37:45.084Z,10.22
2022-09-27T04:40:11.541Z,10.21
2022-09-27T04:42:38.122Z,10.21
2022-09-27T04:45:05.482Z,10.19
2022-09-27T04:47:33.007Z,10.21
2022-09-27T04:49:59.585Z,10.21
2022-09-27T04:52:26.008Z,10.21
2022-09-27T04:54:52.595Z,10.18
2022-09-27T04:57:19.504Z,10.17
2022-09-27T04:59:45.924Z,10.21
2022-09-27T05:02:13.309Z,10.24
2022-09-27T05:04:59.233Z,10.23
2022-09-27T05:07:30.037Z,10.25
2022-09-27T05:10:03.267Z,10.23
2022-09-27T05:12:30.211Z,10.22
2022-09-27T05:14:59.723Z,10.21
2022-09-27T05:17:45.579Z,10.22
2022-09-27T05:20:37.875Z,10.22
2022-09-27T05:23:12.625Z,10.22
2022-09-27T05:25:39.003Z,10.20
2022-09-27T05:28:05.443Z,10.20
2022-09-27T05:30:31.896Z,10.20
2022-09-27T05:33:08.371Z,10.22
2022-09-27T05:35:45.686Z,10.23
2022-09-27T05:38:12.565Z,10.23
2022-09-27T05:40:42.934Z,10.21
2022-09-27T05:43:11.250Z,10.21
2022-09-27T05:45:37.926Z,10.19
2022-09-27T05:48:05.709Z,10.17
2022-09-27T05:50:38.612Z,10.15
2022-09-27T05:53:05.825Z,10.15
2022-09-27T05:55:32.574Z,10.17
2022-09-27T05:58:00.968Z,10.16
2022-09-27T06:00:37.841Z,10.15
2022-09-27T06:03:14.194Z,10.15
2022-09-27T06:06:01.748Z,10.17
2022-09-27T06:08:41.516Z,10.19
2022-09-27T06:11:12.776Z,10.22
2022-09-27T06:13:39.539Z,10.23
2022-09-27T06:16:06.685Z,10.23
2022-09-27T06:18:35.337Z,10.22
2022-09-27T06:21:02.380Z,10.22
2022-09-27T06:23:30.292Z,10.24
2022-09-27T06:26:00.887Z,10.27
2022-09-27T06:28:47.138Z,10.30
2022-09-27T06:31:14.302Z,10.29
2022-09-27T06:33:48.415Z,10.27
2022-09-27T06:36:18.052Z,10.27
2022-09-27T06:38:49.758Z,10.28
2022-09-27T06:41:30.823Z,10.28
2022-09-27T06:44:14.439Z,10.25
2022-09-27T06:46:46.499Z,10.26
2022-09-27T06:49:12.883Z,10.28
2022-09-27T06:51:40.725Z,10.31
2022-09-27T06:54:07.108Z,10.39
2022-09-27T06:56:33.497Z,10.47
2022-09-27T06:59:19.361Z,10.47
2022-09-27T07:01:45.908Z,10.53
2022-09-27T07:04:18.846Z,10.62
2022-09-27T07:06:59.841Z,10.78
2022-09-27T07:09:30.823Z,10.99
2022-09-27T07:11:57.579Z,11.20
2022-09-27T07:14:25.946Z,11.31
2022-09-27T07:16:53.415Z,11.45
2022-09-27T07:19:19.825Z,11.53
2022-09-27T07:21:50.380Z,11.64
2022-09-27T07:24:16.798Z,11.72
2022-09-27T07:26:43.352Z,11.73
2022-09-27T07:29:12.037Z,11.70
2022-09-27T07:31:38.762Z,11.66
2022-09-27T07:34:05.816Z,11.61
2022-09-27T07:36:32.508Z,11.56
2022-09-27T07:38:59.291Z,11.50
2022-09-27T07:41:26.311Z,11.47
2022-09-27T07:43:54.205Z,11.48
2022-09-27T07:46:21.374Z,11.41
2022-09-27T07:48:55.603Z,11.39
2022-09-27T07:51:45.000Z,11.47
2022-09-27T07:54:40.831Z,11.62
2022-09-27T07:57:30.423Z,11.75
2022-09-27T07:59:58.435Z,11.84
2022-09-27T08:02:25.239Z,11.90
2022-09-27T08:04:53.140Z,12.03
2022-09-27T08:07:19.596Z,12.17
2022-09-27T08:09:50.583Z,12.14
2022-09-27T08:12:17.342Z,12.07
2022-09-27T08:14:48.293Z,12.04
2022-09-27T08:17:15.541Z,12.08
2022-09-27T08:20:06.245Z,12.12
2022-09-27T08:22:51.234Z,12.28
2022-09-27T08:25:25.391Z,12.39
2022-09-27T08:28:14.693Z,12.39
2022-09-27T08:30:44.968Z,12.43
2022-09-27T08:33:12.135Z,12.47
2022-09-27T08:35:38.569Z,12.47
2022-09-27T08:38:08.721Z,12.43
2022-09-27T08:40:55.902Z,12.30
2022-09-27T08:43:30.025Z,12.27
2022-09-27T08:46:09.086Z,12.20
2022-09-27T08:48:38.160Z,12.10
2022-09-27T08:51:06.039Z,12.05
2022-09-27T08:53:39.899Z,11.95
2022-09-27T08:56:09.088Z,11.87
2022-09-27T08:58:42.139Z,11.85
2022-09-27T09:01:16.653Z,11.84
2022-09-27T09:03:58.141Z,11.82
2022-09-27T09:06:42.968Z,11.84
2022-09-27T09:09:09.492Z,12.00
2022-09-27T09:11:59.973Z,12.18
2022-09-27T09:14:26.349Z,12.40
2022-09-27T09:17:13.532Z,12.60
2022-09-27T09:20:00.492Z,12.76
2022-09-27T09:22:53.246Z,12.82
2022-09-27T09:25:28.714Z,12.77
2022-09-27T09:28:11.597Z,12.74
2022-09-27T09:30:50.300Z,12.78
2022-09-27T09:33:23.084Z,12.84
2022-09-27T09:36:05.056Z,12.92
2022-09-27T09:38:40.960Z,13.00
2022-09-27T09:41:13.181Z,13.06
2022-09-27T09:43:48.128Z,13.11
2022-09-27T09:46:36.732Z,13.19
2022-09-27T09:49:10.837Z,13.23
2022-09-27T09:51:44.215Z,13.30
2022-09-27T09:54:19.902Z,13.30
2022-09-27T09:56:48.859Z,13.33
2022-09-27T09:59:23.693Z,13.38
2022-09-27T10:01:55.720Z,13.41
2022-09-27T10:04:27.980Z,13.35
2022-09-27T10:06:58.652Z,13.24
2022-09-27T10:09:28.753Z,13.12
2022-09-27T10:12:13.594Z,13.05
2022-09-27T10:14:45.322Z,13.13
2022-09-27T10:17:14.684Z,13.27
2022-09-27T10:19:41.337Z,13.38
2022-09-27T10:22:16.833Z,13.43
2022-09-27T10:25:01.766Z,13.39
2022-09-27T10:27:57.545Z,13.39
2022-09-27T10:30:32.327Z,13.33
2022-09-27T10:33:07.673Z,13.19
2022-09-27T10:35:45.150Z,13.05
2022-09-27T10:38:20.444Z,12.94
2022-09-27T10:40:47.608Z,12.86
2022-09-27T10:43:34.189Z,12.79
2022-09-27T10:46:25.911Z,12.64
2022-09-27T10:49:14.073Z,12.58
2022-09-27T10:51:40.794Z,12.59
2022-09-27T10:54:18.662Z,12.77
2022-09-27T10:56:45.088Z,13.19
2022-09-27T10:59:17.989Z,13.74
2022-09-27T11:01:45.973Z,14.15
2022-09-27T11:05:01.997Z,14.22
2022-09-27T11:07:28.575Z,14.13
2022-09-27T11:10:22.128Z,14.17
2022-09-27T11:13:05.859Z,14.40
2022-09-27T11:15:38.367Z,14.45
2022-09-27T11:18:31.237Z,14.41
2022-09-27T11:21:14.455Z,14.48
2022-09-27T11:23:59.193Z,14.58
2022-09-27T11:26:31.413Z,14.63
2022-09-27T11:29:04.054Z,14.62
2022-09-27T11:32:09.516Z,14.58
2022-09-27T11:34:39.040Z,14.47
2022-09-27T11:37:12.520Z,14.39
2022-09-27T11:39:51.778Z,14.35
2022-09-27T11:42:33.165Z,14.62
2022-09-27T11:45:37.128Z,14.97
2022-09-27T11:48:14.468Z,15.31
2022-09-27T11:50:49.613Z,15.61
2022-09-27T11:53:34.543Z,15.88
2022-09-27T11:56:13.353Z,16.15
2022-09-27T11:58:42.855Z,16.22
2022-09-27T12:01:20.508Z,16.39
2022-09-27T12:03:46.953Z,16.55
2022-09-27T12:06:21.116Z,16.39
2022-09-27T12:09:09.045Z,16.20
2022-09-27T12:11:44.684Z,16.03
2022-09-27T12:14:12.266Z,15.92
2022-09-27T12:16:40.354Z,15.83
2022-09-27T12:19:12.999Z,15.80
2022-09-27T12:22:00.922Z,15.84
2022-09-27T12:24:28.201Z,15.83
2022-09-27T12:27:42.739Z,16.17
2022-09-27T12:30:13.967Z,16.20
2022-09-27T12:32:59.664Z,16.13
2022-09-27T12:35:31.061Z,16.12
2022-09-27T12:38:17.793Z,16.01
2022-09-27T12:40:47.508Z,15.65
2022-09-27T12:43:25.347Z,15.31
2022-09-27T12:46:30.548Z,15.04
2022-09-27T12:49:05.329Z,14.81
2022-09-27T12:51:36.895Z,14.56
2022-09-27T12:54:09.546Z,14.32
2022-09-27T12:57:00.543Z,14.11
2022-09-27T12:59:35.887Z,13.96
2022-09-27T13:02:14.311Z,13.80
2022-09-27T13:04:40.809Z,13.66
2022-09-27T13:07:25.251Z,13.58
2022-09-27T13:09:59.267Z,13.54
2022-09-27T13:12:27.108Z,13.57
2022-09-27T13:14:54.115Z,13.67
2022-09-27T13:17:44.731Z,13.83
2022-09-27T13:20:39.267Z,14.06
2022-09-27T13:23:18.998Z,14.08
2022-09-27T13:25:55.543Z,14.06
2022-09-27T13:28:35.313Z,14.13
2022-09-27T13:31:07.410Z,14.10
2022-09-27T13:33:34.526Z,14.02
2022-09-27T13:36:22.724Z,13.98
2022-09-27T13:39:06.604Z,14.04
2022-09-27T13:41:51.539Z,14.13
2022-09-27T13:44:36.776Z,14.22
2022-09-27T13:47:05.178Z,14.32
2022-09-27T13:49:39.705Z,14.31
2022-09-27T13:52:15.024Z,14.17
2022-09-27T13:54:55.798Z,14.02
2022-09-27T13:57:45.158Z,13.92
2022-09-27T14:00:23.695Z,13.92
2022-09-27T14:02:55.302Z,13.91
2022-09-27T14:05:25.987Z,14.10
2022-09-27T14:07:53.122Z,14.21
2022-09-27T14:10:22.857Z,14.21
2022-09-27T14:12:50.897Z,14.15
2022-09-27T14:15:20.530Z,14.10
2022-09-27T14:17:47.147Z,14.09
2022-09-27T14:20:33.932Z,14.03
2022-09-27T14:23:02.951Z,13.96
2022-09-27T14:25:38.765Z,13.88
2022-09-27T14:28:18.320Z,13.85
2022-09-27T14:31:10.802Z,13.78
2022-09-27T14:34:08.977Z,13.74
2022-09-27T14:36:56.361Z,13.75
2022-09-27T14:39:31.186Z,13.91
2022-09-27T14:41:59.669Z,13.97
2022-09-27T14:44:28.398Z,13.98
2022-09-27T14:47:11.187Z,14.02
2022-09-27T14:49:46.110Z,13.94
2022-09-27T14:52:17.830Z,13.92
2022-09-27T14:54:45.064Z,13.88
2022-09-27T14:57:14.430Z,13.78
2022-09-27T14:59:44.481Z,13.68
2022-09-27T15:02:17.339Z,13.57
2022-09-27T15:04:46.650Z,13.50
2022-09-27T15:07:15.838Z,13.44
2022-09-27T15:09:42.924Z,13.51
2022-09-27T15:12:10.862Z,13.66
2022-09-27T15:14:41.116Z,13.97
2022-09-27T15:17:14.087Z,14.14
2022-09-27T15:19:41.218Z,14.10
2022-09-27T15:22:29.217Z,14.10
2022-09-27T15:25:04.255Z,13.94
2022-09-27T15:27:30.684Z,13.95
2022-09-27T15:29:58.224Z,13.94
2022-09-27T15:32:26.282Z,13.92
2022-09-27T15:34:53.339Z,13.94
2022-09-27T15:37:34.887Z,13.88
2022-09-27T15:40:16.746Z,13.71
2022-09-27T15:42:55.183Z,13.54
2022-09-27T15:45:35.211Z,13.46
2022-09-27T15:48:15.147Z,13.46
2022-09-27T15:50:42.027Z,13.58
2022-09-27T15:53:09.594Z,13.75
2022-09-27T15:55:43.479Z,13.71
2022-09-27T15:58:16.521Z,13.53
2022-09-27T16:00:56.402Z,13.35
2022-09-27T16:03:24.381Z,13.17
2022-09-27T16:05:50.870Z,12.99
2022-09-27T16:08:17.337Z,12.77
2022-09-27T16:10:50.595Z,12.70
2022-09-27T16:13:16.990Z,12.92
2022-09-27T16:15:44.184Z,13.06
2022-09-27T16:18:10.628Z,13.02
2022-09-27T16:20:37.117Z,12.91
2022-09-27T16:23:03.659Z,12.77
2022-09-27T16:25:30.531Z,12.66
2022-09-27T16:27:58.281Z,12.56
2022-09-27T16:30:24.884Z,12.64
2022-09-27T16:32:51.723Z,12.78
2022-09-27T16:35:19.111Z,12.86
2022-09-27T16:37:45.951Z,12.95
2022-09-27T16:40:13.238Z,12.97
2022-09-27T16:42:39.664Z,12.98
2022-09-27T16:45:10.578Z,12.75
2022-09-27T16:47:38.570Z,12.55
2022-09-27T16:50:23.744Z,12.39
2022-09-27T16:52:50.196Z,12.20
2022-09-27T16:55:21.034Z,12.09
2022-09-27T16:57:47.879Z,11.96
2022-09-27T17:00:14.550Z,11.86
2022-09-27T17:02:41.415Z,11.77
2022-09-27T17:05:07.907Z,11.66
2022-09-27T17:07:34.319Z,11.54
2022-09-27T17:10:00.655Z,11.43
2022-09-27T17:12:27.076Z,11.33
2022-09-27T17:14:53.565Z,11.27
2022-09-27T17:17:20.068Z,11.20
2022-09-27T17:19:48.425Z,11.14
2022-09-27T17:22:14.793Z,11.06
2022-09-27T17:24:41.100Z,11.00
2022-09-27T17:27:07.463Z,10.93
2022-09-27T17:29:33.838Z,10.84
2022-09-27T17:32:00.576Z,10.77
2022-09-27T17:34:27.788Z,10.71
2022-09-27T17:36:54.361Z,10.66
2022-09-27T17:39:21.241Z,10.59
2022-09-27T17:41:51.128Z,10.54
2022-09-27T17:44:20.733Z,10.51
2022-09-27T17:46:47.500Z,10.47
2022-09-27T17:49:32.738Z,10.44
2022-09-27T17:51:59.380Z,10.40
2022-09-27T17:54:28.128Z,10.36
2022-09-27T17:56:56.226Z,10.33
2022-09-27T17:59:22.919Z,10.32
2022-09-27T18:01:49.888Z,10.31
2022-09-27T18:04:18.044Z,10.29
2022-09-27T18:06:46.143Z,10.30
2022-09-27T18:09:13.893Z,10.30
2022-09-27T18:11:40.801Z,10.33
2022-09-27T18:14:07.713Z,10.33
2022-09-27T18:16:36.968Z,10.32
2022-09-27T18:19:04.844Z,10.30
2022-09-27T18:21:31.647Z,10.29
2022-09-27T18:23:59.551Z,10.32
2022-09-27T18:26:26.873Z,10.33
2022-09-27T18:28:54.441Z,10.37
2022-09-27T18:31:21.866Z,10.37
2022-09-27T18:33:48.970Z,10.37
2022-09-27T18:36:15.410Z,10.37
2022-09-27T18:38:41.999Z,10.36
2022-09-27T18:41:16.321Z,10.38
2022-09-27T18:43:44.237Z,10.40
2022-09-27T18:46:34.995Z,10.42
2022-09-27T18:49:04.080Z,10.46
2022-09-27T18:51:30.921Z,10.47
2022-09-27T18:54:01.760Z,10.47
2022-09-27T18:56:28.600Z,10.47
2022-09-27T18:58:55.353Z,10.46
2022-09-27T19:01:22.664Z,10.43
2022-09-27T19:03:49.592Z,10.41
2022-09-27T19:06:17.831Z,10.40
2022-09-27T19:08:44.296Z,10.39
2022-09-27T19:11:17.967Z,10.37
2022-09-27T19:13:51.418Z,10.34
2022-09-27T19:16:18.463Z,10.31
2022-09-27T19:18:44.959Z,10.29
2022-09-27T19:21:12.510Z,10.30
2022-09-27T19:23:39.292Z,10.32
2022-09-27T19:26:07.066Z,10.32
2022-09-27T19:28:37.536Z,10.33
2022-09-27T19:31:05.450Z,10.31
2022-09-27T19:33:32.843Z,10.32
2022-09-27T19:35:59.949Z,10.29
2022-09-27T19:38:26.396Z,10.28
2022-09-27T19:40:53.457Z,10.28
2022-09-27T19:43:19.920Z,10.31
2022-09-27T19:45:46.346Z,10.30
2022-09-27T19:48:12.863Z,10.31
2022-09-27T19:50:39.293Z,10.31
2022-09-27T19:53:07.445Z,10.31
2022-09-27T19:55:33.937Z,10.32
2022-09-27T19:58:00.429Z,10.35
2022-09-27T20:00:26.929Z,10.37
2022-09-27T20:02:53.575Z,10.39
2022-09-27T20:05:20.036Z,10.40
2022-09-27T20:07:47.269Z,10.41
2022-09-27T20:10:14.270Z,10.44
2022-09-27T20:12:40.731Z,10.46
2022-09-27T20:15:07.409Z,10.47
2022-09-27T20:17:34.224Z,10.49
2022-09-27T20:20:00.737Z,10.49
2022-09-27T20:22:27.234Z,10.51
2022-09-27T20:24:53.736Z,10.52
2022-09-27T20:27:20.405Z,10.52
2022-09-27T20:29:48.102Z,10.52
2022-09-27T20:32:30.015Z,10.51
2022-09-27T20:34:56.639Z,10.52
2022-09-27T20:37:23.105Z,10.50
2022-09-27T20:39:50.125Z,10.46
2022-09-27T20:42:16.695Z,10.43
2022-09-27T20:44:43.084Z,10.39
2022-09-27T20:47:09.482Z,10.36
2022-09-27T20:49:35.947Z,10.32
2022-09-27T20:52:02.414Z,10.29
2022-09-27T20:54:28.782Z,10.29
2022-09-27T20:56:55.283Z,10.30
2022-09-27T20:59:22.699Z,10.28
2022-09-27T21:01:50.392Z,10.26
2022-09-27T21:04:18.211Z,10.24
2022-09-27T21:06:44.851Z,10.21
2022-09-27T21:09:18.195Z,10.17
2022-09-27T21:11:45.661Z,10.15
2022-09-27T21:14:12.205Z,10.13
2022-09-27T21:16:38.649Z,10.12
2022-09-27T21:19:05.586Z,10.12
2022-09-27T21:21:31.961Z,10.12
2022-09-27T21:23:59.285Z,10.16
2022-09-27T21:26:27.284Z,10.18
2022-09-27T21:28:55.600Z,10.21
2022-09-27T21:31:26.351Z,10.21
2022-09-27T21:33:54.527Z,10.22
2022-09-27T21:36:22.262Z,10.29
2022-09-27T21:38:48.775Z,10.33
2022-09-27T21:41:15.933Z,10.36
2022-09-27T21:43:43.908Z,10.39
2022-09-27T21:46:13.355Z,10.43
2022-09-27T21:48:41.063Z,10.47
2022-09-27T21:51:07.528Z,10.47
2022-09-27T21:53:35.029Z,10.47
2022-09-27T21:56:01.662Z,10.47
2022-09-27T21:58:28.240Z,10.47
2022-09-27T22:00:55.030Z,10.45
2022-09-27T22:03:21.516Z,10.45
2022-09-27T22:05:48.998Z,10.45
2022-09-27T22:08:16.676Z,10.45
2022-09-27T22:10:44.149Z,10.48
2022-09-27T22:13:11.033Z,10.50
2022-09-27T22:15:37.477Z,10.49
2022-09-27T22:18:04.166Z,10.49
2022-09-27T22:20:31.680Z,10.50
2022-09-27T22:22:58.086Z,10.52
2022-09-27T22:25:24.489Z,10.54
2022-09-27T22:27:50.886Z,10.54
2022-09-27T22:30:17.988Z,10.54
2022-09-27T22:32:45.144Z,10.54
2022-09-27T22:35:11.547Z,10.56
2022-09-27T22:37:37.985Z,10.57
2022-09-27T22:40:05.262Z,10.57
2022-09-27T22:42:31.704Z,10.58
2022-09-27T22:44:58.125Z,10.58
2022-09-27T22:47:24.563Z,10.60
2022-09-27T22:49:50.923Z,10.61
2022-09-27T22:52:17.807Z,10.60
2022-09-27T22:54:44.173Z,10.58
2022-09-27T22:57:10.673Z,10.59
2022-09-27T22:59:37.075Z,10.59
2022-09-27T23:02:03.547Z,10.59
2022-09-27T23:04:29.944Z,10.57
2022-09-27T23:06:56.372Z,10.57
2022-09-27T23:09:22.784Z,10.57
2022-09-27T23:11:49.187Z,10.58
2022-09-27T23:14:15.771Z,10.60
2022-09-27T23:16:42.188Z,10.59
2022-09-27T23:19:09.737Z,10.59
2022-09-27T23:21:36.208Z,10.59
2022-09-27T23:24:03.318Z,10.59
2022-09-27T23:26:29.752Z,10.60
2022-09-27T23:28:57.444Z,10.61
2022-09-27T23:31:24.742Z,10.60
2022-09-27T23:33:52.002Z,10.62
2022-09-27T23:36:19.838Z,10.62
2022-09-27T23:38:47.104Z,10.61
2022-09-27T23:41:14.293Z,10.61
2022-09-27T23:43:40.726Z,10.62
2022-09-27T23:46:07.749Z,10.60
2022-09-27T23:48:34.858Z,10.63
2022-09-27T23:51:01.460Z,10.66
2022-09-27T23:53:27.843Z,10.65
2022-09-27T23:56:11.942Z,10.64
2022-09-27T23:58:39.532Z,10.64
